sensor_id;sensor_type;location;lat;lon;timestamp;P1;durP1;ratioP1;P2;durP2;ratioP2
34030;SDS011;20319;28.466;-16.274;2023-07-31T00:00:26;15.95;;;4.15;;
34030;SDS011;20319;28.466;-16.274;2023-07-31T00:02:52;13.05;;;3.60;;
34030;SDS011;20319;28.466;-16.274;2023-07-31T00:05:18;13.73;;;3.65;;
34030;SDS011;20319;28.466;-16.274;2023-07-31T00:07:43;13.20;;;4.07;;
34030;SDS011;20319;28.466;-16.274;2023-07-31T00:10:09;11.93;;;3.58;;
34030;SDS011;20319;28.466;-16.274;2023-07-31T00:12:35;8.57;;;2.90;;
34030;SDS011;20319;28.466;-16.274;2023-07-31T00:15:01;9.98;;;3.53;;
34030;SDS011;20319;28.466;-16.274;2023-07-31T00:17:27;9.82;;;3.20;;
34030;SDS011;20319;28.466;-16.274;2023-07-31T00:19:53;8.27;;;2.97;;
34030;SDS011;20319;28.466;-16.274;2023-07-31T00:22:19;9.55;;;3.28;;
34030;SDS011;20319;28.466;-16.274;2023-07-31T00:24:44;12.07;;;3.63;;
34030;SDS011;20319;28.466;-16.274;2023-07-31T00:27:10;12.75;;;3.72;;
34030;SDS011;20319;28.466;-16.274;2023-07-31T00:29:36;10.48;;;3.70;;
34030;SDS011;20319;28.466;-16.274;2023-07-31T00:32:01;12.23;;;3.65;;
34030;SDS011;20319;28.466;-16.274;2023-07-31T00:34:27;11.95;;;3.63;;
34030;SDS011;20319;28.466;-16.274;2023-07-31T00:36:53;10.98;;;3.75;;
34030;SDS011;20319;28.466;-16.274;2023-07-31T00:39:18;11.30;;;3.83;;
34030;SDS011;20319;28.466;-16.274;2023-07-31T00:41:44;11.38;;;3.60;;
34030;SDS011;20319;28.466;-16.274;2023-07-31T00:44:10;12.73;;;3.58;;
34030;SDS011;20319;28.466;-16.274;2023-07-31T00:46:35;11.70;;;3.67;;
34030;SDS011;20319;28.466;-16.274;2023-07-31T00:49:01;8.55;;;3.65;;
34030;SDS011;20319;28.466;-16.274;2023-07-31T00:51:27;10.20;;;4.18;;
34030;SDS011;20319;28.466;-16.274;2023-07-31T00:53:53;13.30;;;4.22;;
34030;SDS011;20319;28.466;-16.274;2023-07-31T00:56:22;9.45;;;4.15;;
34030;SDS011;20319;28.466;-16.274;2023-07-31T00:58:48;9.77;;;3.75;;
34030;SDS011;20319;28.466;-16.274;2023-07-31T01:01:14;10.40;;;3.83;;
34030;SDS011;20319;28.466;-16.274;2023-07-31T01:03:40;14.05;;;3.80;;
34030;SDS011;20319;28.466;-16.274;2023-07-31T01:06:14;11.73;;;3.95;;
34030;SDS011;20319;28.466;-16.274;2023-07-31T01:11:42;11.00;;;3.45;;
34030;SDS011;20319;28.466;-16.274;2023-07-31T01:14:13;13.13;;;4.47;;
34030;SDS011;20319;28.466;-16.274;2023-07-31T01:16:39;13.25;;;4.20;;
34030;SDS011;20319;28.466;-16.274;2023-07-31T01:19:05;9.57;;;4.25;;
34030;SDS011;20319;28.466;-16.274;2023-07-31T01:27:06;9.73;;;4.00;;
34030;SDS011;20319;28.466;-16.274;2023-07-31T01:30:00;12.35;;;4.30;;
34030;SDS011;20319;28.466;-16.274;2023-07-31T01:32:36;12.60;;;4.45;;
34030;SDS011;20319;28.466;-16.274;2023-07-31T01:35:05;11.30;;;3.95;;
34030;SDS011;20319;28.466;-16.274;2023-07-31T01:37:32;9.75;;;4.20;;
34030;SDS011;20319;28.466;-16.274;2023-07-31T01:39:58;12.95;;;4.70;;
34030;SDS011;20319;28.466;-16.274;2023-07-31T01:42:24;14.27;;;4.78;;
34030;SDS011;20319;28.466;-16.274;2023-07-31T01:44:49;12.07;;;4.32;;
34030;SDS011;20319;28.466;-16.274;2023-07-31T01:47:15;15.65;;;4.57;;
34030;SDS011;20319;28.466;-16.274;2023-07-31T01:49:41;19.27;;;4.85;;
34030;SDS011;20319;28.466;-16.274;2023-07-31T01:52:06;9.65;;;4.22;;
34030;SDS011;20319;28.466;-16.274;2023-07-31T01:54:32;10.80;;;4.45;;
34030;SDS011;20319;28.466;-16.274;2023-07-31T01:56:58;14.02;;;4.78;;
34030;SDS011;20319;28.466;-16.274;2023-07-31T01:59:24;12.48;;;4.47;;
34030;SDS011;20319;28.466;-16.274;2023-07-31T02:01:50;9.48;;;4.10;;
34030;SDS011;20319;28.466;-16.274;2023-07-31T02:04:15;19.02;;;4.57;;
34030;SDS011;20319;28.466;-16.274;2023-07-31T02:06:41;18.83;;;4.82;;
34030;SDS011;20319;28.466;-16.274;2023-07-31T02:09:06;15.60;;;4.80;;
34030;SDS011;20319;28.466;-16.274;2023-07-31T02:11:32;13.13;;;4.78;;
34030;SDS011;20319;28.466;-16.274;2023-07-31T02:13:57;10.90;;;4.60;;
34030;SDS011;20319;28.466;-16.274;2023-07-31T02:16:23;14.95;;;4.70;;
34030;SDS011;20319;28.466;-16.274;2023-07-31T02:18:49;14.15;;;4.43;;
34030;SDS011;20319;28.466;-16.274;2023-07-31T02:21:14;20.50;;;4.63;;
34030;SDS011;20319;28.466;-16.274;2023-07-31T02:23:40;12.18;;;4.28;;
34030;SDS011;20319;28.466;-16.274;2023-07-31T02:26:05;11.10;;;3.83;;
34030;SDS011;20319;28.466;-16.274;2023-07-31T02:28:31;12.43;;;4.15;;
34030;SDS011;20319;28.466;-16.274;2023-07-31T02:30:56;11.77;;;4.00;;
34030;SDS011;20319;28.466;-16.274;2023-07-31T02:33:22;13.13;;;4.13;;
34030;SDS011;20319;28.466;-16.274;2023-07-31T02:35:48;9.55;;;3.65;;
34030;SDS011;20319;28.466;-16.274;2023-07-31T02:38:13;12.40;;;3.42;;
34030;SDS011;20319;28.466;-16.274;2023-07-31T02:40:39;11.80;;;4.22;;
34030;SDS011;20319;28.466;-16.274;2023-07-31T02:43:06;6.65;;;3.55;;
34030;SDS011;20319;28.466;-16.274;2023-07-31T02:45:32;10.85;;;3.55;;
34030;SDS011;20319;28.466;-16.274;2023-07-31T02:47:58;15.55;;;3.90;;
34030;SDS011;20319;28.466;-16.274;2023-07-31T02:50:24;11.55;;;3.90;;
34030;SDS011;20319;28.466;-16.274;2023-07-31T02:52:49;12.85;;;4.28;;
34030;SDS011;20319;28.466;-16.274;2023-07-31T02:55:15;10.40;;;3.47;;
34030;SDS011;20319;28.466;-16.274;2023-07-31T02:57:40;12.40;;;3.55;;
34030;SDS011;20319;28.466;-16.274;2023-07-31T03:00:06;10.82;;;3.63;;
34030;SDS011;20319;28.466;-16.274;2023-07-31T03:02:32;11.18;;;3.60;;
34030;SDS011;20319;28.466;-16.274;2023-07-31T03:04:58;15.85;;;4.53;;
34030;SDS011;20319;28.466;-16.274;2023-07-31T03:07:24;11.25;;;4.35;;
34030;SDS011;20319;28.466;-16.274;2023-07-31T03:09:49;14.70;;;5.32;;
34030;SDS011;20319;28.466;-16.274;2023-07-31T03:12:15;12.23;;;4.53;;
34030;SDS011;20319;28.466;-16.274;2023-07-31T03:14:40;13.35;;;4.13;;
34030;SDS011;20319;28.466;-16.274;2023-07-31T03:17:06;12.60;;;4.40;;
34030;SDS011;20319;28.466;-16.274;2023-07-31T03:19:32;12.23;;;3.95;;
34030;SDS011;20319;28.466;-16.274;2023-07-31T03:21:58;12.38;;;4.63;;
34030;SDS011;20319;28.466;-16.274;2023-07-31T03:24:27;13.32;;;4.00;;
34030;SDS011;20319;28.466;-16.274;2023-07-31T03:26:53;11.00;;;3.75;;
34030;SDS011;20319;28.466;-16.274;2023-07-31T03:29:19;12.52;;;3.53;;
34030;SDS011;20319;28.466;-16.274;2023-07-31T03:31:44;8.55;;;3.20;;
34030;SDS011;20319;28.466;-16.274;2023-07-31T03:34:10;9.98;;;4.00;;
34030;SDS011;20319;28.466;-16.274;2023-07-31T03:36:36;13.63;;;4.03;;
34030;SDS011;20319;28.466;-16.274;2023-07-31T03:39:01;13.10;;;4.00;;
34030;SDS011;20319;28.466;-16.274;2023-07-31T03:41:27;15.15;;;4.15;;
34030;SDS011;20319;28.466;-16.274;2023-07-31T03:43:52;13.60;;;4.00;;
34030;SDS011;20319;28.466;-16.274;2023-07-31T03:46:19;12.02;;;3.95;;
34030;SDS011;20319;28.466;-16.274;2023-07-31T03:48:44;14.40;;;4.03;;
34030;SDS011;20319;28.466;-16.274;2023-07-31T03:51:10;11.27;;;3.55;;
34030;SDS011;20319;28.466;-16.274;2023-07-31T03:53:36;11.27;;;3.28;;
34030;SDS011;20319;28.466;-16.274;2023-07-31T03:56:01;17.50;;;4.00;;
34030;SDS011;20319;28.466;-16.274;2023-07-31T03:58:27;14.93;;;3.97;;
34030;SDS011;20319;28.466;-16.274;2023-07-31T04:00:52;11.73;;;3.88;;
34030;SDS011;20319;28.466;-16.274;2023-07-31T04:03:18;15.68;;;4.38;;
34030;SDS011;20319;28.466;-16.274;2023-07-31T04:05:44;14.07;;;4.30;;
34030;SDS011;20319;28.466;-16.274;2023-07-31T04:08:09;13.73;;;4.60;;
34030;SDS011;20319;28.466;-16.274;2023-07-31T04:10:35;17.67;;;4.47;;
34030;SDS011;20319;28.466;-16.274;2023-07-31T04:13:01;11.35;;;4.10;;
34030;SDS011;20319;28.466;-16.274;2023-07-31T04:15:26;14.25;;;4.28;;
34030;SDS011;20319;28.466;-16.274;2023-07-31T04:17:52;14.77;;;3.83;;
34030;SDS011;20319;28.466;-16.274;2023-07-31T04:20:17;12.13;;;4.38;;
34030;SDS011;20319;28.466;-16.274;2023-07-31T04:22:43;11.60;;;4.00;;
34030;SDS011;20319;28.466;-16.274;2023-07-31T04:25:09;9.55;;;3.53;;
34030;SDS011;20319;28.466;-16.274;2023-07-31T04:27:34;11.73;;;3.65;;
34030;SDS011;20319;28.466;-16.274;2023-07-31T04:30:00;11.50;;;4.03;;
34030;SDS011;20319;28.466;-16.274;2023-07-31T04:32:25;12.65;;;4.20;;
34030;SDS011;20319;28.466;-16.274;2023-07-31T04:34:51;12.07;;;3.95;;
34030;SDS011;20319;28.466;-16.274;2023-07-31T04:37:17;13.52;;;5.03;;
34030;SDS011;20319;28.466;-16.274;2023-07-31T04:39:42;17.52;;;5.63;;
34030;SDS011;20319;28.466;-16.274;2023-07-31T04:42:08;20.30;;;5.60;;
34030;SDS011;20319;28.466;-16.274;2023-07-31T04:44:35;16.15;;;5.78;;
34030;SDS011;20319;28.466;-16.274;2023-07-31T04:47:00;18.60;;;5.70;;
34030;SDS011;20319;28.466;-16.274;2023-07-31T04:49:27;20.40;;;5.80;;
34030;SDS011;20319;28.466;-16.274;2023-07-31T04:51:53;16.02;;;5.88;;
34030;SDS011;20319;28.466;-16.274;2023-07-31T04:54:18;13.50;;;4.93;;
34030;SDS011;20319;28.466;-16.274;2023-07-31T04:56:44;11.48;;;4.03;;
34030;SDS011;20319;28.466;-16.274;2023-07-31T04:59:09;11.07;;;3.78;;
34030;SDS011;20319;28.466;-16.274;2023-07-31T05:01:35;15.02;;;4.00;;
34030;SDS011;20319;28.466;-16.274;2023-07-31T05:04:00;10.90;;;3.88;;
34030;SDS011;20319;28.466;-16.274;2023-07-31T05:06:26;10.48;;;4.05;;
34030;SDS011;20319;28.466;-16.274;2023-07-31T05:08:51;13.80;;;4.15;;
34030;SDS011;20319;28.466;-16.274;2023-07-31T05:11:17;15.90;;;5.10;;
34030;SDS011;20319;28.466;-16.274;2023-07-31T05:13:43;15.98;;;5.47;;
34030;SDS011;20319;28.466;-16.274;2023-07-31T05:16:08;22.13;;;6.05;;
34030;SDS011;20319;28.466;-16.274;2023-07-31T05:18:34;17.65;;;6.25;;
34030;SDS011;20319;28.466;-16.274;2023-07-31T05:20:59;12.82;;;5.25;;
34030;SDS011;20319;28.466;-16.274;2023-07-31T05:23:25;18.27;;;6.10;;
34030;SDS011;20319;28.466;-16.274;2023-07-31T05:25:51;16.75;;;6.30;;
34030;SDS011;20319;28.466;-16.274;2023-07-31T05:28:16;17.52;;;5.30;;
34030;SDS011;20319;28.466;-16.274;2023-07-31T05:30:42;13.50;;;5.00;;
34030;SDS011;20319;28.466;-16.274;2023-07-31T05:33:08;13.98;;;5.00;;
34030;SDS011;20319;28.466;-16.274;2023-07-31T05:35:33;12.88;;;4.97;;
34030;SDS011;20319;28.466;-16.274;2023-07-31T05:37:59;11.52;;;5.43;;
34030;SDS011;20319;28.466;-16.274;2023-07-31T05:40:24;21.15;;;6.82;;
34030;SDS011;20319;28.466;-16.274;2023-07-31T05:42:50;39.00;;;7.05;;
34030;SDS011;20319;28.466;-16.274;2023-07-31T05:45:16;27.70;;;7.28;;
34030;SDS011;20319;28.466;-16.274;2023-07-31T05:47:41;67.80;;;8.68;;
34030;SDS011;20319;28.466;-16.274;2023-07-31T05:50:07;266.63;;;14.55;;
34030;SDS011;20319;28.466;-16.274;2023-07-31T05:52:33;60.83;;;8.48;;
34030;SDS011;20319;28.466;-16.274;2023-07-31T05:54:58;21.52;;;6.75;;
34030;SDS011;20319;28.466;-16.274;2023-07-31T05:57:24;23.42;;;5.97;;
34030;SDS011;20319;28.466;-16.274;2023-07-31T05:59:50;16.50;;;5.13;;
34030;SDS011;20319;28.466;-16.274;2023-07-31T06:02:15;13.57;;;5.90;;
34030;SDS011;20319;28.466;-16.274;2023-07-31T06:04:41;17.75;;;5.00;;
34030;SDS011;20319;28.466;-16.274;2023-07-31T06:07:06;15.75;;;4.95;;
34030;SDS011;20319;28.466;-16.274;2023-07-31T06:09:32;15.38;;;4.63;;
34030;SDS011;20319;28.466;-16.274;2023-07-31T06:11:58;13.55;;;5.00;;
34030;SDS011;20319;28.466;-16.274;2023-07-31T06:14:23;15.48;;;5.45;;
34030;SDS011;20319;28.466;-16.274;2023-07-31T06:16:49;15.30;;;5.00;;
34030;SDS011;20319;28.466;-16.274;2023-07-31T06:19:14;14.05;;;4.18;;
34030;SDS011;20319;28.466;-16.274;2023-07-31T06:21:40;11.23;;;4.45;;
34030;SDS011;20319;28.466;-16.274;2023-07-31T06:24:08;15.43;;;4.07;;
34030;SDS011;20319;28.466;-16.274;2023-07-31T06:26:34;9.52;;;3.63;;
34030;SDS011;20319;28.466;-16.274;2023-07-31T06:28:59;10.32;;;3.90;;
34030;SDS011;20319;28.466;-16.274;2023-07-31T06:31:25;9.65;;;3.55;;
34030;SDS011;20319;28.466;-16.274;2023-07-31T06:33:51;10.85;;;3.75;;
34030;SDS011;20319;28.466;-16.274;2023-07-31T06:36:17;14.73;;;4.00;;
34030;SDS011;20319;28.466;-16.274;2023-07-31T06:38:43;10.35;;;3.50;;
34030;SDS011;20319;28.466;-16.274;2023-07-31T06:41:09;10.00;;;3.60;;
34030;SDS011;20319;28.466;-16.274;2023-07-31T06:43:35;10.15;;;3.53;;
34030;SDS011;20319;28.466;-16.274;2023-07-31T06:46:07;10.73;;;3.28;;
34030;SDS011;20319;28.466;-16.274;2023-07-31T06:48:35;10.43;;;3.88;;
34030;SDS011;20319;28.466;-16.274;2023-07-31T06:51:01;13.27;;;4.22;;
34030;SDS011;20319;28.466;-16.274;2023-07-31T06:53:28;12.07;;;4.22;;
34030;SDS011;20319;28.466;-16.274;2023-07-31T06:55:54;10.25;;;4.15;;
34030;SDS011;20319;28.466;-16.274;2023-07-31T06:58:19;15.23;;;5.18;;
34030;SDS011;20319;28.466;-16.274;2023-07-31T07:00:45;16.42;;;4.53;;
34030;SDS011;20319;28.466;-16.274;2023-07-31T07:03:11;14.13;;;5.03;;
34030;SDS011;20319;28.466;-16.274;2023-07-31T07:05:39;15.23;;;5.28;;
34030;SDS011;20319;28.466;-16.274;2023-07-31T07:08:05;14.52;;;4.43;;
34030;SDS011;20319;28.466;-16.274;2023-07-31T07:10:31;14.93;;;4.45;;
34030;SDS011;20319;28.466;-16.274;2023-07-31T07:12:57;15.02;;;4.82;;
34030;SDS011;20319;28.466;-16.274;2023-07-31T07:15:22;10.30;;;4.30;;
34030;SDS011;20319;28.466;-16.274;2023-07-31T07:17:48;11.05;;;3.80;;
34030;SDS011;20319;28.466;-16.274;2023-07-31T07:20:13;11.70;;;3.90;;
34030;SDS011;20319;28.466;-16.274;2023-07-31T07:22:39;11.20;;;3.58;;
34030;SDS011;20319;28.466;-16.274;2023-07-31T07:25:08;11.27;;;3.15;;
34030;SDS011;20319;28.466;-16.274;2023-07-31T07:27:34;13.07;;;3.67;;
34030;SDS011;20319;28.466;-16.274;2023-07-31T07:30:00;12.43;;;3.53;;
34030;SDS011;20319;28.466;-16.274;2023-07-31T07:32:25;14.00;;;3.95;;
34030;SDS011;20319;28.466;-16.274;2023-07-31T07:34:51;12.38;;;3.75;;
34030;SDS011;20319;28.466;-16.274;2023-07-31T07:37:16;12.07;;;3.50;;
34030;SDS011;20319;28.466;-16.274;2023-07-31T07:39:42;20.00;;;4.68;;
34030;SDS011;20319;28.466;-16.274;2023-07-31T07:42:08;14.48;;;4.55;;
34030;SDS011;20319;28.466;-16.274;2023-07-31T07:44:34;17.77;;;4.60;;
34030;SDS011;20319;28.466;-16.274;2023-07-31T07:46:59;17.08;;;4.32;;
34030;SDS011;20319;28.466;-16.274;2023-07-31T07:49:25;12.35;;;4.22;;
34030;SDS011;20319;28.466;-16.274;2023-07-31T07:51:51;15.88;;;3.60;;
34030;SDS011;20319;28.466;-16.274;2023-07-31T07:54:16;19.38;;;10.68;;
34030;SDS011;20319;28.466;-16.274;2023-07-31T07:56:42;13.80;;;4.05;;
34030;SDS011;20319;28.466;-16.274;2023-07-31T07:59:08;8.98;;;3.60;;
34030;SDS011;20319;28.466;-16.274;2023-07-31T08:01:34;12.18;;;3.45;;
34030;SDS011;20319;28.466;-16.274;2023-07-31T08:03:59;8.13;;;3.20;;
34030;SDS011;20319;28.466;-16.274;2023-07-31T08:06:25;9.15;;;3.20;;
34030;SDS011;20319;28.466;-16.274;2023-07-31T08:08:50;9.75;;;3.40;;
34030;SDS011;20319;28.466;-16.274;2023-07-31T08:11:16;9.60;;;3.45;;
34030;SDS011;20319;28.466;-16.274;2023-07-31T08:13:42;9.98;;;3.75;;
34030;SDS011;20319;28.466;-16.274;2023-07-31T08:16:07;16.10;;;4.38;;
34030;SDS011;20319;28.466;-16.274;2023-07-31T08:18:33;10.55;;;3.90;;
34030;SDS011;20319;28.466;-16.274;2023-07-31T08:20:59;13.55;;;3.95;;
34030;SDS011;20319;28.466;-16.274;2023-07-31T08:23:26;8.00;;;3.60;;
34030;SDS011;20319;28.466;-16.274;2023-07-31T08:25:51;11.35;;;3.63;;
34030;SDS011;20319;28.466;-16.274;2023-07-31T08:28:17;7.07;;;3.35;;
34030;SDS011;20319;28.466;-16.274;2023-07-31T08:30:43;13.13;;;3.58;;
34030;SDS011;20319;28.466;-16.274;2023-07-31T08:33:08;14.52;;;3.88;;
34030;SDS011;20319;28.466;-16.274;2023-07-31T08:35:34;12.38;;;7.05;;
34030;SDS011;20319;28.466;-16.274;2023-07-31T08:38:00;12.80;;;3.80;;
34030;SDS011;20319;28.466;-16.274;2023-07-31T08:40:25;11.27;;;3.65;;
34030;SDS011;20319;28.466;-16.274;2023-07-31T08:42:53;10.05;;;3.60;;
34030;SDS011;20319;28.466;-16.274;2023-07-31T08:45:21;8.95;;;3.50;;
34030;SDS011;20319;28.466;-16.274;2023-07-31T08:47:48;10.07;;;3.28;;
34030;SDS011;20319;28.466;-16.274;2023-07-31T08:50:16;10.00;;;3.10;;
34030;SDS011;20319;28.466;-16.274;2023-07-31T08:52:43;13.15;;;3.65;;
34030;SDS011;20319;28.466;-16.274;2023-07-31T08:55:09;14.43;;;3.90;;
34030;SDS011;20319;28.466;-16.274;2023-07-31T08:57:36;13.52;;;3.83;;
34030;SDS011;20319;28.466;-16.274;2023-07-31T09:00:04;8.60;;;3.55;;
34030;SDS011;20319;28.466;-16.274;2023-07-31T09:02:52;13.38;;;3.50;;
34030;SDS011;20319;28.466;-16.274;2023-07-31T09:05:19;9.90;;;3.25;;
34030;SDS011;20319;28.466;-16.274;2023-07-31T09:07:47;9.90;;;3.47;;
34030;SDS011;20319;28.466;-16.274;2023-07-31T09:10:14;11.00;;;3.45;;
34030;SDS011;20319;28.466;-16.274;2023-07-31T09:12:40;11.50;;;3.45;;
34030;SDS011;20319;28.466;-16.274;2023-07-31T09:15:06;12.40;;;4.15;;
34030;SDS011;20319;28.466;-16.274;2023-07-31T09:17:34;14.45;;;4.47;;
34030;SDS011;20319;28.466;-16.274;2023-07-31T09:20:14;15.45;;;3.72;;
34030;SDS011;20319;28.466;-16.274;2023-07-31T09:22:44;12.48;;;4.05;;
34030;SDS011;20319;28.466;-16.274;2023-07-31T09:25:14;10.68;;;5.45;;
34030;SDS011;20319;28.466;-16.274;2023-07-31T09:27:57;12.52;;;4.03;;
34030;SDS011;20319;28.466;-16.274;2023-07-31T09:30:25;9.88;;;3.70;;
34030;SDS011;20319;28.466;-16.274;2023-07-31T09:32:51;14.52;;;4.15;;
34030;SDS011;20319;28.466;-16.274;2023-07-31T09:35:30;19.65;;;4.22;;
34030;SDS011;20319;28.466;-16.274;2023-07-31T09:37:58;13.77;;;4.53;;
34030;SDS011;20319;28.466;-16.274;2023-07-31T09:40:28;14.27;;;3.97;;
34030;SDS011;20319;28.466;-16.274;2023-07-31T09:42:59;15.00;;;4.38;;
34030;SDS011;20319;28.466;-16.274;2023-07-31T09:45:26;14.63;;;3.92;;
34030;SDS011;20319;28.466;-16.274;2023-07-31T09:47:52;16.95;;;4.60;;
34030;SDS011;20319;28.466;-16.274;2023-07-31T09:50:19;10.38;;;3.70;;
34030;SDS011;20319;28.466;-16.274;2023-07-31T09:52:45;15.38;;;3.90;;
34030;SDS011;20319;28.466;-16.274;2023-07-31T09:55:11;13.13;;;3.78;;
34030;SDS011;20319;28.466;-16.274;2023-07-31T09:57:38;16.23;;;3.90;;
34030;SDS011;20319;28.466;-16.274;2023-07-31T10:00:06;14.95;;;3.75;;
34030;SDS011;20319;28.466;-16.274;2023-07-31T10:02:34;10.88;;;3.88;;
34030;SDS011;20319;28.466;-16.274;2023-07-31T10:05:02;13.23;;;3.75;;
34030;SDS011;20319;28.466;-16.274;2023-07-31T10:07:29;15.30;;;3.38;;
34030;SDS011;20319;28.466;-16.274;2023-07-31T10:10:00;14.70;;;3.80;;
34030;SDS011;20319;28.466;-16.274;2023-07-31T10:12:27;12.23;;;3.80;;
34030;SDS011;20319;28.466;-16.274;2023-07-31T10:14:56;11.15;;;3.90;;
34030;SDS011;20319;28.466;-16.274;2023-07-31T10:17:24;12.27;;;3.53;;
34030;SDS011;20319;28.466;-16.274;2023-07-31T10:19:51;11.40;;;3.88;;
34030;SDS011;20319;28.466;-16.274;2023-07-31T10:22:18;11.23;;;3.47;;
34030;SDS011;20319;28.466;-16.274;2023-07-31T10:24:45;16.13;;;3.83;;
34030;SDS011;20319;28.466;-16.274;2023-07-31T10:27:11;10.45;;;3.80;;
34030;SDS011;20319;28.466;-16.274;2023-07-31T10:29:38;15.75;;;4.32;;
34030;SDS011;20319;28.466;-16.274;2023-07-31T10:32:05;13.13;;;4.20;;
34030;SDS011;20319;28.466;-16.274;2023-07-31T10:34:35;13.23;;;3.40;;
34030;SDS011;20319;28.466;-16.274;2023-07-31T10:37:19;9.63;;;3.67;;
34030;SDS011;20319;28.466;-16.274;2023-07-31T10:40:02;11.88;;;3.70;;
34030;SDS011;20319;28.466;-16.274;2023-07-31T10:42:47;16.00;;;4.18;;
34030;SDS011;20319;28.466;-16.274;2023-07-31T10:45:24;13.05;;;3.80;;
34030;SDS011;20319;28.466;-16.274;2023-07-31T10:48:04;12.75;;;3.65;;
34030;SDS011;20319;28.466;-16.274;2023-07-31T10:50:38;14.25;;;4.20;;
34030;SDS011;20319;28.466;-16.274;2023-07-31T10:53:22;14.88;;;4.18;;
34030;SDS011;20319;28.466;-16.274;2023-07-31T10:55:48;15.13;;;4.18;;
34030;SDS011;20319;28.466;-16.274;2023-07-31T10:58:17;13.02;;;3.65;;
34030;SDS011;20319;28.466;-16.274;2023-07-31T11:00:44;14.63;;;4.53;;
34030;SDS011;20319;28.466;-16.274;2023-07-31T11:03:14;10.15;;;3.50;;
34030;SDS011;20319;28.466;-16.274;2023-07-31T11:05:41;13.13;;;3.88;;
34030;SDS011;20319;28.466;-16.274;2023-07-31T11:08:22;15.80;;;3.72;;
34030;SDS011;20319;28.466;-16.274;2023-07-31T11:10:50;16.30;;;4.32;;
34030;SDS011;20319;28.466;-16.274;2023-07-31T11:15:54;10.98;;;3.63;;
34030;SDS011;20319;28.466;-16.274;2023-07-31T11:18:20;10.68;;;3.60;;
34030;SDS011;20319;28.466;-16.274;2023-07-31T11:20:46;13.52;;;3.65;;
34030;SDS011;20319;28.466;-16.274;2023-07-31T11:23:12;11.57;;;3.50;;
34030;SDS011;20319;28.466;-16.274;2023-07-31T11:25:39;12.32;;;3.90;;
34030;SDS011;20319;28.466;-16.274;2023-07-31T11:28:12;12.55;;;3.95;;
34030;SDS011;20319;28.466;-16.274;2023-07-31T11:30:39;11.90;;;3.78;;
34030;SDS011;20319;28.466;-16.274;2023-07-31T11:33:06;13.35;;;3.72;;
34030;SDS011;20319;28.466;-16.274;2023-07-31T11:35:34;12.20;;;4.03;;
34030;SDS011;20319;28.466;-16.274;2023-07-31T11:38:01;12.25;;;3.90;;
34030;SDS011;20319;28.466;-16.274;2023-07-31T11:40:28;11.38;;;3.75;;
34030;SDS011;20319;28.466;-16.274;2023-07-31T11:42:57;13.73;;;3.78;;
34030;SDS011;20319;28.466;-16.274;2023-07-31T11:45:27;13.02;;;3.55;;
34030;SDS011;20319;28.466;-16.274;2023-07-31T11:47:56;13.05;;;4.20;;
34030;SDS011;20319;28.466;-16.274;2023-07-31T11:50:22;14.48;;;4.30;;
34030;SDS011;20319;28.466;-16.274;2023-07-31T11:52:55;10.18;;;3.30;;
34030;SDS011;20319;28.466;-16.274;2023-07-31T11:55:24;15.00;;;3.88;;
34030;SDS011;20319;28.466;-16.274;2023-07-31T11:57:51;10.65;;;3.85;;
34030;SDS011;20319;28.466;-16.274;2023-07-31T12:00:19;10.65;;;3.25;;
34030;SDS011;20319;28.466;-16.274;2023-07-31T12:02:45;9.73;;;3.45;;
34030;SDS011;20319;28.466;-16.274;2023-07-31T12:05:12;10.73;;;3.50;;
34030;SDS011;20319;28.466;-16.274;2023-07-31T12:07:54;12.95;;;3.58;;
34030;SDS011;20319;28.466;-16.274;2023-07-31T12:10:30;15.25;;;3.63;;
34030;SDS011;20319;28.466;-16.274;2023-07-31T12:15:33;13.65;;;6.25;;
34030;SDS011;20319;28.466;-16.274;2023-07-31T12:17:59;16.40;;;6.70;;
34030;SDS011;20319;28.466;-16.274;2023-07-31T12:20:25;10.93;;;3.10;;
34030;SDS011;20319;28.466;-16.274;2023-07-31T12:22:51;11.60;;;3.40;;
34030;SDS011;20319;28.466;-16.274;2023-07-31T12:25:16;13.30;;;3.90;;
34030;SDS011;20319;28.466;-16.274;2023-07-31T12:27:45;12.13;;;3.53;;
34030;SDS011;20319;28.466;-16.274;2023-07-31T12:30:29;9.10;;;3.35;;
34030;SDS011;20319;28.466;-16.274;2023-07-31T12:32:57;12.07;;;3.70;;
34030;SDS011;20319;28.466;-16.274;2023-07-31T12:35:33;12.98;;;3.08;;
34030;SDS011;20319;28.466;-16.274;2023-07-31T12:38:01;18.33;;;4.13;;
34030;SDS011;20319;28.466;-16.274;2023-07-31T12:40:27;12.80;;;3.03;;
34030;SDS011;20319;28.466;-16.274;2023-07-31T12:42:53;13.63;;;3.83;;
34030;SDS011;20319;28.466;-16.274;2023-07-31T12:45:18;8.52;;;3.08;;
34030;SDS011;20319;28.466;-16.274;2023-07-31T12:47:46;12.73;;;3.80;;
34030;SDS011;20319;28.466;-16.274;2023-07-31T12:50:11;11.77;;;3.38;;
34030;SDS011;20319;28.466;-16.274;2023-07-31T12:52:37;10.55;;;3.30;;
34030;SDS011;20319;28.466;-16.274;2023-07-31T12:55:03;12.50;;;4.20;;
34030;SDS011;20319;28.466;-16.274;2023-07-31T12:57:29;13.25;;;3.38;;
34030;SDS011;20319;28.466;-16.274;2023-07-31T12:59:55;16.67;;;4.32;;
34030;SDS011;20319;28.466;-16.274;2023-07-31T13:02:21;10.82;;;3.40;;
34030;SDS011;20319;28.466;-16.274;2023-07-31T13:04:47;13.68;;;4.00;;
34030;SDS011;20319;28.466;-16.274;2023-07-31T13:07:14;11.80;;;3.42;;
34030;SDS011;20319;28.466;-16.274;2023-07-31T13:09:39;14.80;;;4.45;;
34030;SDS011;20319;28.466;-16.274;2023-07-31T13:12:05;17.20;;;3.80;;
34030;SDS011;20319;28.466;-16.274;2023-07-31T13:14:31;13.57;;;3.67;;
34030;SDS011;20319;28.466;-16.274;2023-07-31T13:16:56;9.05;;;3.17;;
34030;SDS011;20319;28.466;-16.274;2023-07-31T13:19:22;12.65;;;3.63;;
34030;SDS011;20319;28.466;-16.274;2023-07-31T13:21:48;12.13;;;3.55;;
34030;SDS011;20319;28.466;-16.274;2023-07-31T13:24:13;12.80;;;3.50;;
34030;SDS011;20319;28.466;-16.274;2023-07-31T13:26:39;18.00;;;3.63;;
34030;SDS011;20319;28.466;-16.274;2023-07-31T13:29:05;13.45;;;3.45;;
34030;SDS011;20319;28.466;-16.274;2023-07-31T13:31:30;9.40;;;3.25;;
34030;SDS011;20319;28.466;-16.274;2023-07-31T13:33:56;13.80;;;3.90;;
34030;SDS011;20319;28.466;-16.274;2023-07-31T13:36:21;13.65;;;3.58;;
34030;SDS011;20319;28.466;-16.274;2023-07-31T13:38:47;13.20;;;3.70;;
34030;SDS011;20319;28.466;-16.274;2023-07-31T13:41:12;11.15;;;3.30;;
34030;SDS011;20319;28.466;-16.274;2023-07-31T13:43:38;14.00;;;3.80;;
34030;SDS011;20319;28.466;-16.274;2023-07-31T13:46:04;12.60;;;4.15;;
34030;SDS011;20319;28.466;-16.274;2023-07-31T13:48:35;10.30;;;4.10;;
34030;SDS011;20319;28.466;-16.274;2023-07-31T13:51:01;12.70;;;3.42;;
34030;SDS011;20319;28.466;-16.274;2023-07-31T13:53:26;10.50;;;3.70;;
34030;SDS011;20319;28.466;-16.274;2023-07-31T13:55:52;11.15;;;3.47;;
34030;SDS011;20319;28.466;-16.274;2023-07-31T13:58:18;14.98;;;3.42;;
34030;SDS011;20319;28.466;-16.274;2023-07-31T14:00:43;14.35;;;3.78;;
34030;SDS011;20319;28.466;-16.274;2023-07-31T14:03:09;13.38;;;3.50;;
34030;SDS011;20319;28.466;-16.274;2023-07-31T14:05:35;10.20;;;3.35;;
34030;SDS011;20319;28.466;-16.274;2023-07-31T14:08:00;9.55;;;3.63;;
34030;SDS011;20319;28.466;-16.274;2023-07-31T14:10:26;14.18;;;3.58;;
34030;SDS011;20319;28.466;-16.274;2023-07-31T14:12:52;10.32;;;3.55;;
34030;SDS011;20319;28.466;-16.274;2023-07-31T14:15:17;13.30;;;3.50;;
34030;SDS011;20319;28.466;-16.274;2023-07-31T14:17:43;13.50;;;3.45;;
34030;SDS011;20319;28.466;-16.274;2023-07-31T14:20:09;12.90;;;3.40;;
34030;SDS011;20319;28.466;-16.274;2023-07-31T14:22:35;11.90;;;3.50;;